• Join FlightAware (Why Join?)
  • Login
  • US Flag 
03:29AM EDT


 

Airport Tracker/Info


-or-


 

Live Flight TrackerFlight Track Log ✈ TAM3840 ✈ 22-Jan-2014 ✈ SBTE / THE - SBFZ / FOR

Flight Track Log - Related Links

Times and Time Zones

All times are in EST time to prevent confusion due to time zone crossing. See the TAM3840 flight status page for this flight to view local times or setup timezone preferences in your user account.

Time Position Orientation Groundspeed Altitude Reporting Facility
EST Latitude Longitude Course Direction KTS MPH feet Rate Location/Type
10:08AM -4.4046 -40.6207 73° East  Level Estimated
10:09AM -4.3717 -40.5107 73° East  Level Estimated
10:10AM -4.3387 -40.4007 73° East  Level Estimated
10:11AM -4.3057 -40.2906 73° East  Level Estimated
10:12AM -4.2727 -40.1806 73° East  Level Estimated
10:13AM -4.2397 -40.0706 73° East  Level Estimated
10:14AM -4.2067 -39.9607 73° East  Level Estimated
10:15AM -4.1736 -39.8507 73° East  Level Estimated
10:16AM -4.1406 -39.7407 73° East  Level Estimated
10:17AM -4.1075 -39.6308 73° East  Level Estimated
10:18AM -4.0744 -39.5208 73° East  Level Estimated
10:19AM -4.0413 -39.4109 73° East  Level Estimated
10:20AM -4.0082 -39.3009 73° East  Level Estimated
10:21AM -3.9751 -39.1910 73° East  Level Estimated
10:22AM -3.9420 -39.0811 73° East  Level Estimated
10:23AM -3.9088 -38.9712 73° East  Level Estimated
10:24AM -3.8756 -38.8613 73° East  Level Estimated
10:25AM -3.8424 -38.7514 73° East  Level Estimated
10:26AM -3.8092 -38.6415 73° East  Level Estimated
10:27AM -3.7763 -38.5326 73° East  Level Estimated
10:28AM -3.7763 -38.5326 127° Southeast  Level Estimated
10:29AM -3.7763 -38.5326 127° Southeast  Level Estimated
10:30AM -3.7763 -38.5326 127° Southeast  Level Estimated
10:31AM -3.7763 -38.5326 127° Southeast  Level Estimated
10:32AM -3.7763 -38.5326 127° Southeast  Level Estimated
10:33AM -3.7763 -38.5326 127° Southeast  Level Estimated
10:34AM -3.7763 -38.5326 127° Southeast  Level Estimated
10:35AM -3.7763 -38.5326 127° Southeast  Level Estimated
10:36AM -3.7763 -38.5326 127° Southeast  Level Estimated
10:37AM -3.7763 -38.5326 127° Southeast  Level Estimated
10:38AM -3.7763 -38.5326 127° Southeast  Level Estimated
10:39AM -3.7763 -38.5326 127° Southeast  Level Estimated
10:40AM -3.7763 -38.5326 127° Southeast  Level Estimated
10:41AM -3.7763 -38.5326 127° Southeast  Level Estimated
10:42AM -3.7763 -38.5326 127° Southeast  Level Estimated
10:43AM -3.7763 -38.5326 127° Southeast  Level Estimated